Startpagina
METAR-TAF:

METAR-TAF

Vliegvelden :

Internationale Luchthaven Oostende-Brugge

Oostende, België

breedte: 51-12N, lengte: 002-52E, hoogte: 4 m

Actueel weer

Dit bericht is 34 minuten geleden gemaakt, om 10:50 UTC
Wind 18 kt uit het zuidwesten
Temperatuur 21°C
Vochtigheid 60%
Druk 1016 hPa
Zicht 10 km of meer
Verspreide wolken op 2800 ft

METAR: EBOS 191050Z 22018KT 9999 SCT028 21/13 Q1016 TEMPO 22015G25KT

Tijdstip: 13:24 (11:24 UTC)

Verwachting

Dit bericht is 6 uur en het 14 minuten geleden gemaakt, om 05:10 UTC
Verwachting geldig van 19 om 06 UTC tot 20 om 12 UTC
Wind 9 kt uit het zuiden
Zicht 10 km of meer
geen wolken onder 1500 m en geen cumulonimbus
Tijdelijke
van 19 om 10 UTC tot 19 om 18 UTC
Wind 15 kt uit het zuidwesten met uitschieters tot 25 kt
Tijdelijke
van 20 om 09 UTC tot 20 om 12 UTC
Wind 15 kt uit het zuidwesten met uitschieters tot 25 kt

TAF: EBOS 190510Z 1906/2012 19009KT CAVOK TEMPO 1910/1918 22015G25KT TEMPO 2009/2012 22015G25KT

Waarnemingen en weersverwachtingen van meer dan 4000 vliegvelden (METAR en TAF).

De beschikbare stations zijn de gele en rode punten op de kaart.

Ga met uw muis naar het station om de naam te zien.

Klik dan om waarnemingen en weersverwachtingen te zien.

kaart wijzigen: klik op de groene knoppen met een zwart kruis om in te zoomen, op de groene knop met een streepje om uit te zoomen of op de groene pijlen voor aangrenzende kaarten.


METAR-TAF: